createdAt,value
2023-03-01T00:00:52.832Z,49.24
2023-03-01T00:02:24.435Z,49.00
2023-03-01T00:03:56.525Z,48.90
2023-03-01T00:05:28.106Z,48.97
2023-03-01T00:07:02.438Z,49.38
2023-03-01T00:08:34.590Z,49.50
2023-03-01T00:10:06.638Z,50.07
2023-03-01T00:11:38.207Z,50.06
2023-03-01T00:13:09.768Z,50.42
2023-03-01T00:14:41.491Z,50.30
2023-03-01T00:16:14.053Z,50.67
2023-03-01T00:17:45.651Z,50.80
2023-03-01T00:19:18.014Z,50.72
2023-03-01T00:20:50.746Z,50.77
2023-03-01T00:22:24.389Z,51.24
2023-03-01T00:23:56.064Z,50.88
2023-03-01T00:25:27.698Z,51.23
2023-03-01T00:26:59.360Z,51.12
2023-03-01T00:28:32.309Z,51.40
2023-03-01T00:30:04.194Z,51.36
2023-03-01T00:31:36.102Z,51.46
2023-03-01T00:33:07.689Z,51.89
2023-03-01T00:34:39.276Z,51.62
2023-03-01T00:36:11.908Z,51.53
2023-03-01T00:37:44.864Z,51.56
2023-03-01T00:39:16.761Z,51.65
2023-03-01T00:40:48.350Z,51.62
2023-03-01T00:42:19.876Z,51.50
2023-03-01T00:43:51.519Z,51.56
2023-03-01T00:45:23.285Z,51.60
2023-03-01T00:46:55.074Z,51.33
2023-03-01T00:48:26.919Z,51.25
2023-03-01T00:49:58.491Z,51.44
2023-03-01T00:51:30.334Z,51.47
2023-03-01T00:53:03.338Z,51.45
2023-03-01T00:54:34.921Z,51.69
2023-03-01T00:56:07.186Z,51.73
2023-03-01T00:57:38.923Z,51.43
2023-03-01T00:59:10.477Z,51.72
2023-03-01T01:00:42.073Z,51.77
2023-03-01T01:02:13.766Z,51.66
2023-03-01T01:03:46.430Z,52.04
2023-03-01T01:05:21.767Z,51.86
2023-03-01T01:06:53.374Z,51.88
2023-03-01T01:08:26.278Z,52.18
2023-03-01T01:09:57.985Z,52.38
2023-03-01T01:11:30.183Z,52.48
2023-03-01T01:13:03.078Z,52.77
2023-03-01T01:14:35.105Z,52.78
2023-03-01T01:16:07.236Z,53.07
2023-03-01T01:17:38.858Z,52.94
2023-03-01T01:19:11.385Z,53.07
2023-03-01T01:20:42.959Z,53.27
2023-03-01T01:22:14.494Z,53.29
2023-03-01T01:23:48.194Z,53.36
2023-03-01T01:25:19.817Z,53.30
2023-03-01T01:26:51.442Z,53.31
2023-03-01T01:28:23.025Z,53.18
2023-03-01T01:29:54.629Z,53.61
2023-03-01T01:31:27.683Z,53.51
2023-03-01T01:32:59.238Z,53.51
2023-03-01T01:34:30.870Z,53.44
2023-03-01T01:36:03.144Z,53.21
2023-03-01T01:37:34.667Z,53.09
2023-03-01T01:39:08.193Z,53.10
2023-03-01T01:40:43.945Z,52.99
2023-03-01T01:42:15.901Z,53.15
2023-03-01T01:43:48.502Z,53.05
2023-03-01T01:45:27.981Z,53.01
2023-03-01T01:47:01.670Z,53.54
2023-03-01T01:48:41.225Z,53.31
2023-03-01T01:50:17.258Z,53.63
2023-03-01T01:51:50.859Z,53.60
2023-03-01T01:53:22.524Z,53.63
2023-03-01T01:54:58.009Z,53.53
2023-03-01T01:56:30.217Z,53.90
2023-03-01T01:58:04.017Z,53.67
2023-03-01T01:59:36.158Z,53.75
2023-03-01T02:01:08.362Z,53.84
2023-03-01T02:02:40.357Z,53.63
2023-03-01T02:04:12.124Z,53.58
2023-03-01T02:05:55.019Z,53.71
2023-03-01T02:07:27.530Z,53.53
2023-03-01T02:09:01.204Z,53.47
2023-03-01T02:10:35.563Z,53.49
2023-03-01T02:12:07.918Z,53.09
2023-03-01T02:13:39.530Z,53.18
2023-03-01T02:15:11.448Z,53.20
2023-03-01T02:16:43.488Z,53.21
2023-03-01T02:18:16.589Z,53.32
2023-03-01T02:19:53.147Z,53.40
2023-03-01T02:21:31.297Z,53.41
2023-03-01T02:23:06.973Z,53.65
2023-03-01T02:24:43.311Z,53.54
2023-03-01T02:26:22.720Z,53.69
2023-03-01T02:27:59.642Z,53.92
2023-03-01T02:29:32.933Z,53.77
2023-03-01T02:31:24.247Z,53.79
2023-03-01T02:33:05.614Z,54.09
2023-03-01T02:34:37.376Z,54.27
2023-03-01T02:36:12.377Z,54.35
2023-03-01T02:37:44.723Z,54.25
2023-03-01T02:39:19.966Z,54.37
2023-03-01T02:40:52.250Z,54.64
2023-03-01T02:42:27.334Z,54.64
2023-03-01T02:43:59.232Z,54.64
2023-03-01T02:45:32.725Z,54.92
2023-03-01T02:47:06.903Z,54.71
2023-03-01T02:48:42.974Z,54.95
2023-03-01T02:50:20.329Z,54.81
2023-03-01T02:52:18.941Z,54.81
2023-03-01T02:53:57.033Z,54.94
2023-03-01T02:55:28.694Z,54.84
2023-03-01T02:57:01.839Z,54.63
2023-03-01T02:58:46.005Z,55.01
2023-03-01T03:00:20.624Z,54.99
2023-03-01T03:01:53.960Z,54.61
2023-03-01T03:03:25.504Z,55.29
2023-03-01T03:04:57.256Z,54.83
2023-03-01T03:06:29.267Z,54.95
2023-03-01T03:08:01.662Z,54.88
2023-03-01T03:09:35.424Z,55.27
2023-03-01T03:11:06.998Z,55.10
2023-03-01T03:12:39.983Z,54.93
2023-03-01T03:14:13.522Z,55.36
2023-03-01T03:15:47.079Z,55.03
2023-03-01T03:17:19.919Z,55.21
2023-03-01T03:18:51.682Z,55.41
2023-03-01T03:20:25.184Z,55.61
2023-03-01T03:21:56.766Z,55.71
2023-03-01T03:23:30.285Z,55.86
2023-03-01T03:25:01.792Z,55.86
2023-03-01T03:26:33.622Z,55.92
2023-03-01T03:28:10.398Z,55.75
2023-03-01T03:29:41.936Z,55.74
2023-03-01T03:31:13.451Z,55.40
2023-03-01T03:32:53.575Z,55.69
2023-03-01T03:34:25.093Z,55.35
2023-03-01T03:35:56.851Z,55.50
2023-03-01T03:37:48.427Z,55.72
2023-03-01T03:39:20.727Z,55.48
2023-03-01T03:40:53.529Z,55.43
2023-03-01T03:42:25.314Z,55.75
2023-03-01T03:43:56.838Z,55.60
2023-03-01T03:45:28.522Z,55.46
2023-03-01T03:47:00.082Z,55.84
2023-03-01T03:48:33.906Z,56.28
2023-03-01T03:50:05.946Z,56.27
2023-03-01T03:51:37.470Z,56.24
2023-03-01T03:53:10.151Z,56.12
2023-03-01T03:54:41.697Z,56.53
2023-03-01T03:56:13.629Z,56.57
2023-03-01T03:57:45.218Z,56.30
2023-03-01T03:59:16.801Z,56.17
2023-03-01T04:00:50.232Z,55.82
2023-03-01T04:02:23.183Z,56.14
2023-03-01T04:03:56.259Z,56.39
2023-03-01T04:05:28.413Z,56.28
2023-03-01T04:06:59.972Z,56.10
2023-03-01T04:08:31.921Z,56.03
2023-03-01T04:10:03.628Z,55.79
2023-03-01T04:11:35.788Z,56.36
2023-03-01T04:13:08.615Z,56.43
2023-03-01T04:14:40.228Z,55.99
2023-03-01T04:16:11.795Z,56.26
2023-03-01T04:17:44.204Z,56.52
2023-03-01T04:19:17.493Z,56.61
2023-03-01T04:20:49.267Z,56.82
2023-03-01T04:22:20.878Z,56.46
2023-03-01T04:23:53.568Z,56.83
2023-03-01T04:25:25.440Z,57.04
2023-03-01T04:26:57.531Z,56.34
2023-03-01T04:28:30.006Z,56.82
2023-03-01T04:30:01.941Z,56.70
2023-03-01T04:31:33.650Z,56.71
2023-03-01T04:33:05.373Z,56.72
2023-03-01T04:34:38.308Z,56.40
2023-03-01T04:36:10.567Z,56.47
2023-03-01T04:37:42.671Z,56.68
2023-03-01T04:39:14.250Z,56.60
2023-03-01T04:40:46.258Z,56.47
2023-03-01T04:42:17.793Z,56.77
2023-03-01T04:43:49.798Z,56.37
2023-03-01T04:45:21.431Z,56.26
2023-03-01T04:46:53.098Z,56.98
2023-03-01T04:48:24.599Z,56.91
2023-03-01T04:49:57.535Z,56.68
2023-03-01T04:51:29.368Z,56.47
2023-03-01T04:53:00.901Z,56.72
2023-03-01T04:54:33.398Z,57.17
2023-03-01T04:56:05.564Z,57.40
2023-03-01T04:57:37.335Z,56.97
2023-03-01T04:59:10.966Z,57.57
2023-03-01T05:00:42.696Z,57.37
2023-03-01T05:02:14.298Z,57.22
2023-03-01T05:03:46.603Z,57.72
2023-03-01T05:05:19.519Z,57.81
2023-03-01T05:06:51.353Z,57.29
2023-03-01T05:08:22.915Z,57.82
2023-03-01T05:09:55.705Z,57.49
2023-03-01T05:11:29.009Z,58.10
2023-03-01T05:13:00.791Z,57.96
2023-03-01T05:14:32.322Z,57.46
2023-03-01T05:16:04.442Z,58.04
2023-03-01T05:17:36.165Z,57.71
2023-03-01T05:19:16.139Z,58.04
2023-03-01T05:20:49.129Z,57.61
2023-03-01T05:22:20.661Z,58.39
2023-03-01T05:23:52.514Z,58.08
2023-03-01T05:25:24.091Z,57.98
2023-03-01T05:26:56.139Z,58.10
2023-03-01T05:28:29.140Z,57.95
2023-03-01T05:30:14.188Z,57.65
2023-03-01T05:31:45.744Z,57.37
2023-03-01T05:33:17.628Z,57.86
2023-03-01T05:34:49.193Z,57.12
2023-03-01T05:36:22.110Z,57.10
2023-03-01T05:37:53.944Z,56.94
2023-03-01T05:39:26.787Z,57.47
2023-03-01T05:40:58.413Z,56.99
2023-03-01T05:42:30.062Z,57.30
2023-03-01T05:44:01.628Z,57.54
2023-03-01T05:45:36.201Z,57.38
2023-03-01T05:47:07.851Z,57.42
2023-03-01T05:48:40.012Z,57.45
2023-03-01T05:50:12.881Z,57.90
2023-03-01T05:51:50.906Z,57.29
2023-03-01T05:53:22.617Z,57.92
2023-03-01T05:54:54.236Z,57.13
2023-03-01T05:56:25.784Z,57.12
2023-03-01T05:57:58.977Z,57.38
2023-03-01T05:59:31.110Z,57.20
2023-03-01T06:01:03.096Z,57.96
2023-03-01T06:02:35.077Z,57.60
2023-03-01T06:04:06.712Z,57.55
2023-03-01T06:05:38.530Z,57.07
2023-03-01T06:07:12.143Z,57.22
2023-03-01T06:08:44.248Z,57.20
2023-03-01T06:10:19.432Z,57.33
2023-03-01T06:11:51.000Z,57.33
2023-03-01T06:13:22.629Z,57.67
2023-03-01T06:14:54.246Z,57.58
2023-03-01T06:16:26.976Z,56.97
2023-03-01T06:18:00.206Z,57.13
2023-03-01T06:19:32.487Z,57.26
2023-03-01T06:21:04.818Z,57.02
2023-03-01T06:22:38.580Z,56.87
2023-03-01T06:24:12.209Z,57.33
2023-03-01T06:25:43.807Z,57.21
2023-03-01T06:27:16.454Z,56.58
2023-03-01T06:28:48.488Z,57.20
2023-03-01T06:30:21.008Z,57.10
2023-03-01T06:31:53.495Z,56.87
2023-03-01T06:33:27.419Z,56.99
2023-03-01T06:34:59.597Z,57.17
2023-03-01T06:36:31.513Z,56.93
2023-03-01T06:38:06.601Z,56.82
2023-03-01T06:39:38.256Z,56.72
2023-03-01T06:41:10.862Z,56.39
2023-03-01T06:42:43.540Z,56.10
2023-03-01T06:44:15.107Z,56.77
2023-03-01T06:45:46.822Z,56.12
2023-03-01T06:47:18.351Z,56.37
2023-03-01T06:48:51.873Z,56.43
2023-03-01T06:50:24.916Z,56.02
2023-03-01T06:51:56.803Z,55.98
2023-03-01T06:53:30.138Z,56.06
2023-03-01T06:55:02.057Z,56.32
2023-03-01T06:56:34.259Z,55.94
2023-03-01T06:58:06.078Z,55.99
2023-03-01T06:59:37.782Z,55.66
2023-03-01T07:01:10.493Z,55.81
2023-03-01T07:02:42.384Z,55.54
2023-03-01T07:04:14.565Z,55.79
2023-03-01T07:05:46.158Z,55.97
2023-03-01T07:07:19.237Z,55.81
2023-03-01T07:08:52.228Z,55.67
2023-03-01T07:10:23.935Z,55.39
2023-03-01T07:11:55.758Z,55.51
2023-03-01T07:13:27.472Z,55.44
2023-03-01T07:14:59.103Z,55.41
2023-03-01T07:16:31.011Z,55.17
2023-03-01T07:18:02.884Z,55.18
2023-03-01T07:19:34.550Z,55.32
2023-03-01T07:21:07.005Z,55.10
2023-03-01T07:22:40.328Z,55.09
2023-03-01T07:24:13.592Z,55.25
2023-03-01T07:25:45.159Z,55.25
2023-03-01T07:27:17.121Z,55.05
2023-03-01T07:28:49.083Z,54.87
2023-03-01T07:30:23.373Z,54.84
2023-03-01T07:31:55.653Z,54.79
2023-03-01T07:33:27.485Z,54.80
2023-03-01T07:34:59.060Z,54.56
2023-03-01T07:36:30.926Z,54.67
2023-03-01T07:38:02.800Z,54.61
2023-03-01T07:39:35.942Z,54.51
2023-03-01T07:41:07.620Z,54.47
2023-03-01T07:42:39.303Z,54.45
2023-03-01T07:44:13.312Z,54.13
2023-03-01T07:45:44.913Z,54.30
2023-03-01T07:47:16.553Z,54.14
2023-03-01T07:48:49.504Z,53.92
2023-03-01T07:50:21.811Z,54.20
2023-03-01T07:51:53.478Z,53.68
2023-03-01T07:53:25.053Z,53.46
2023-03-01T07:54:58.515Z,53.36
2023-03-01T07:56:30.611Z,52.84
2023-03-01T07:58:02.560Z,53.11
2023-03-01T07:59:35.170Z,52.42
2023-03-01T08:01:07.842Z,52.45
2023-03-01T08:02:41.320Z,52.70
2023-03-01T08:04:13.006Z,52.64
2023-03-01T08:05:44.707Z,52.89
2023-03-01T08:07:16.437Z,52.61
2023-03-01T08:08:48.281Z,52.37
2023-03-01T08:10:21.580Z,52.48
2023-03-01T08:12:00.264Z,52.36
2023-03-01T08:13:32.449Z,52.45
2023-03-01T08:15:04.663Z,52.22
2023-03-01T08:16:38.669Z,52.33
2023-03-01T08:18:10.281Z,52.30
2023-03-01T08:19:41.920Z,52.29
2023-03-01T08:21:15.849Z,52.37
2023-03-01T08:22:47.649Z,51.75
2023-03-01T08:24:19.228Z,51.99
2023-03-01T08:25:53.979Z,51.81
2023-03-01T08:27:25.760Z,51.55
2023-03-01T08:28:57.442Z,51.68
2023-03-01T08:30:29.189Z,51.01
2023-03-01T08:32:01.328Z,51.71
2023-03-01T08:33:33.036Z,51.03
2023-03-01T08:35:04.937Z,51.08
2023-03-01T08:36:38.230Z,50.87
2023-03-01T08:38:09.789Z,50.86
2023-03-01T08:39:42.430Z,50.98
2023-03-01T08:41:15.669Z,50.95
2023-03-01T08:42:47.339Z,50.95
2023-03-01T08:44:18.942Z,51.27
2023-03-01T08:45:50.615Z,51.37
2023-03-01T08:47:22.282Z,50.74
2023-03-01T08:48:53.888Z,50.44
2023-03-01T08:50:26.060Z,50.32
2023-03-01T08:51:57.738Z,49.49
2023-03-01T08:53:29.469Z,49.28
2023-03-01T08:55:02.425Z,49.67
2023-03-01T08:56:35.820Z,49.08
2023-03-01T08:58:07.350Z,48.86
2023-03-01T08:59:39.560Z,48.81
2023-03-01T09:01:11.903Z,47.96
2023-03-01T09:02:44.042Z,48.08
2023-03-01T09:04:16.185Z,47.16
2023-03-01T09:05:50.330Z,47.18
2023-03-01T09:07:29.277Z,47.37
2023-03-01T09:09:01.896Z,47.33
2023-03-01T09:10:33.620Z,47.25
2023-03-01T09:12:09.657Z,46.96
2023-03-01T09:13:44.196Z,46.37
2023-03-01T09:15:16.353Z,46.41
2023-03-01T09:16:48.232Z,45.98
2023-03-01T09:18:19.866Z,45.64
2023-03-01T09:19:51.575Z,45.94
2023-03-01T09:21:37.581Z,45.44
2023-03-01T09:23:12.264Z,45.27
2023-03-01T09:24:44.712Z,45.04
2023-03-01T09:26:23.542Z,44.73
2023-03-01T09:27:56.656Z,44.83
2023-03-01T09:29:29.223Z,44.54
2023-03-01T09:31:01.668Z,44.59
2023-03-01T09:32:35.782Z,44.44
2023-03-01T09:34:07.797Z,44.48
2023-03-01T09:35:46.894Z,44.30
2023-03-01T09:37:18.577Z,44.13
2023-03-01T09:38:50.516Z,43.88
2023-03-01T09:40:23.961Z,43.83
2023-03-01T09:42:01.635Z,43.66
2023-03-01T09:43:40.988Z,43.10
2023-03-01T09:45:28.137Z,43.42
2023-03-01T09:47:00.631Z,43.59
2023-03-01T09:48:34.509Z,43.54
2023-03-01T09:50:15.060Z,43.40
2023-03-01T09:51:56.991Z,43.76
2023-03-01T09:53:34.034Z,43.21
2023-03-01T09:55:09.348Z,42.63
2023-03-01T09:56:42.596Z,42.65
2023-03-01T09:58:31.867Z,42.87
2023-03-01T10:00:13.945Z,41.48
2023-03-01T10:01:51.036Z,41.41
2023-03-01T10:03:26.737Z,42.00
2023-03-01T10:05:05.345Z,41.29
2023-03-01T10:06:36.950Z,41.53
2023-03-01T10:08:26.320Z,41.34
2023-03-01T10:10:01.407Z,41.13
2023-03-01T10:11:34.456Z,40.80
2023-03-01T10:13:12.009Z,40.66
2023-03-01T10:14:49.370Z,40.29
2023-03-01T10:16:27.216Z,40.05
2023-03-01T10:18:01.471Z,40.28
2023-03-01T10:19:35.027Z,40.06
2023-03-01T10:21:13.335Z,40.36
2023-03-01T10:22:51.496Z,40.72
2023-03-01T10:24:23.939Z,40.18
2023-03-01T10:26:05.408Z,39.99
2023-03-01T10:27:41.992Z,39.97
2023-03-01T10:29:15.037Z,39.52
2023-03-01T10:30:47.893Z,39.76
2023-03-01T10:32:25.026Z,40.56
2023-03-01T10:33:58.098Z,39.93
2023-03-01T10:35:34.484Z,39.96
2023-03-01T10:37:11.008Z,39.48
2023-03-01T10:38:49.824Z,39.85
2023-03-01T10:40:21.763Z,39.86
2023-03-01T10:41:58.110Z,39.34
2023-03-01T10:43:33.548Z,39.91
2023-03-01T10:45:16.975Z,39.78
2023-03-01T10:46:59.892Z,40.18
2023-03-01T10:48:32.943Z,39.21
2023-03-01T10:50:06.111Z,38.93
2023-03-01T10:51:39.423Z,39.01
2023-03-01T10:53:30.096Z,39.34
2023-03-01T10:55:04.365Z,39.36
2023-03-01T10:56:47.344Z,39.31
2023-03-01T10:58:22.389Z,38.25
2023-03-01T11:00:01.795Z,38.59
2023-03-01T11:01:36.759Z,38.72
2023-03-01T11:03:14.003Z,39.41
2023-03-01T11:04:59.253Z,39.30
2023-03-01T11:06:31.215Z,39.33
2023-03-01T11:08:04.349Z,39.46
2023-03-01T11:09:39.644Z,39.13
2023-03-01T11:11:17.632Z,39.21
2023-03-01T11:12:49.481Z,38.29
2023-03-01T11:14:27.275Z,38.44
2023-03-01T11:16:00.120Z,38.81
2023-03-01T11:17:39.077Z,38.55
2023-03-01T11:19:17.954Z,38.96
2023-03-01T11:20:53.242Z,38.39
2023-03-01T11:22:24.924Z,38.42
2023-03-01T11:23:59.064Z,37.78
2023-03-01T11:25:33.997Z,38.39
2023-03-01T11:27:10.121Z,38.17
2023-03-01T11:28:43.153Z,38.09
2023-03-01T11:30:21.920Z,38.08
2023-03-01T11:31:57.961Z,38.17
2023-03-01T11:33:36.313Z,38.03
2023-03-01T11:35:13.480Z,38.22
2023-03-01T11:36:54.648Z,38.90
2023-03-01T11:38:28.897Z,38.22
2023-03-01T11:40:11.809Z,38.22
2023-03-01T11:41:44.364Z,38.78
2023-03-01T11:43:20.170Z,38.69
2023-03-01T11:44:55.386Z,37.86
2023-03-01T11:46:47.692Z,38.49
2023-03-01T11:48:43.352Z,38.84
2023-03-01T11:50:25.729Z,38.75
2023-03-01T11:52:04.234Z,38.23
2023-03-01T11:53:48.700Z,38.66
2023-03-01T11:55:26.145Z,37.78
2023-03-01T11:57:11.769Z,38.42
2023-03-01T11:59:02.023Z,38.01
2023-03-01T12:00:45.500Z,38.16
2023-03-01T12:02:38.995Z,38.37
2023-03-01T12:04:40.472Z,37.93
2023-03-01T12:06:45.555Z,38.47
2023-03-01T12:08:22.691Z,38.65
2023-03-01T12:10:06.212Z,38.24
2023-03-01T12:11:43.668Z,37.71
2023-03-01T12:13:29.433Z,38.73
2023-03-01T12:15:23.371Z,38.06
2023-03-01T12:17:03.471Z,37.76
2023-03-01T12:18:51.874Z,37.63
2023-03-01T12:20:31.860Z,37.74
2023-03-01T12:22:18.274Z,37.75
2023-03-01T12:24:08.529Z,38.16
2023-03-01T12:25:43.325Z,37.77
2023-03-01T12:27:30.316Z,37.76
2023-03-01T12:29:21.811Z,37.63
2023-03-01T12:31:03.217Z,37.54
2023-03-01T12:32:47.158Z,37.24
2023-03-01T12:34:34.402Z,36.69
2023-03-01T12:36:26.887Z,37.11
2023-03-01T12:38:06.294Z,37.06
2023-03-01T12:39:44.556Z,37.30
2023-03-01T12:41:34.112Z,36.77
2023-03-01T12:43:14.001Z,36.73
2023-03-01T12:45:03.338Z,37.73
2023-03-01T12:46:42.845Z,36.93
2023-03-01T12:48:22.639Z,36.88
2023-03-01T12:49:57.584Z,37.20
2023-03-01T12:51:31.290Z,37.46
2023-03-01T12:53:03.656Z,37.10
2023-03-01T12:54:37.678Z,36.92
2023-03-01T12:56:12.912Z,36.42
2023-03-01T12:57:49.766Z,35.84
2023-03-01T12:59:26.557Z,35.15
2023-03-01T13:01:04.307Z,34.71
2023-03-01T13:02:38.494Z,34.18
2023-03-01T13:04:17.093Z,34.24
2023-03-01T13:05:55.663Z,33.77
2023-03-01T13:07:31.748Z,33.58
2023-03-01T13:09:07.830Z,33.32
2023-03-01T13:10:42.657Z,33.59
2023-03-01T13:12:48.904Z,33.70
2023-03-01T13:14:45.959Z,33.92
2023-03-01T13:16:42.635Z,34.32
2023-03-01T13:18:29.552Z,33.49
2023-03-01T13:20:01.352Z,33.38
2023-03-01T13:21:35.066Z,33.20
2023-03-01T13:23:12.502Z,32.89
2023-03-01T13:24:45.731Z,33.34
2023-03-01T13:26:18.565Z,33.36
2023-03-01T13:27:50.831Z,32.60
2023-03-01T13:29:27.241Z,32.77
2023-03-01T13:31:00.479Z,33.04
2023-03-01T13:32:43.702Z,32.39
2023-03-01T13:34:33.782Z,31.81
2023-03-01T13:36:08.188Z,32.16
2023-03-01T13:37:40.105Z,33.01
2023-03-01T13:39:29.378Z,32.13
2023-03-01T13:41:01.560Z,32.00
2023-03-01T13:42:39.211Z,31.33
2023-03-01T13:44:13.768Z,31.37
2023-03-01T13:45:46.463Z,30.77
2023-03-01T13:47:21.897Z,30.60
2023-03-01T13:48:56.239Z,29.64
2023-03-01T13:50:29.426Z,29.05
2023-03-01T13:52:05.098Z,28.60
2023-03-01T13:53:37.638Z,28.15
2023-03-01T13:55:22.409Z,27.79
2023-03-01T13:56:55.190Z,27.00
2023-03-01T13:58:28.529Z,26.52
2023-03-01T14:00:00.902Z,26.19
2023-03-01T14:01:37.588Z,25.80
2023-03-01T14:03:15.458Z,24.36
2023-03-01T14:04:56.818Z,25.23
2023-03-01T14:06:31.109Z,25.25
2023-03-01T14:08:03.876Z,26.17
2023-03-01T14:09:39.523Z,25.67
2023-03-01T14:11:28.950Z,25.45
2023-03-01T14:13:15.609Z,25.75
2023-03-01T14:14:54.467Z,25.64
2023-03-01T14:16:33.762Z,24.71
2023-03-01T14:18:09.720Z,24.94
2023-03-01T14:19:45.935Z,25.71
2023-03-01T14:21:17.913Z,26.58
2023-03-01T14:22:51.889Z,26.85
2023-03-01T14:24:24.309Z,27.67
2023-03-01T14:26:02.045Z,28.91
2023-03-01T14:27:36.127Z,29.06
2023-03-01T14:29:23.995Z,29.73
2023-03-01T14:30:56.804Z,29.63
2023-03-01T14:32:29.721Z,30.29
2023-03-01T14:34:01.564Z,29.68
2023-03-01T14:35:39.943Z,29.68
2023-03-01T14:37:12.367Z,30.64
2023-03-01T14:38:45.887Z,31.09
2023-03-01T14:40:25.327Z,31.69
2023-03-01T14:41:58.979Z,31.88
2023-03-01T14:43:36.325Z,31.71
2023-03-01T14:45:08.725Z,31.72
2023-03-01T14:46:41.793Z,32.52
2023-03-01T14:48:13.735Z,32.50
2023-03-01T14:49:45.425Z,32.29
2023-03-01T14:51:20.441Z,32.41
2023-03-01T14:52:57.772Z,32.64
2023-03-01T14:54:33.944Z,32.86
2023-03-01T14:56:06.083Z,33.23
2023-03-01T14:57:38.035Z,33.06
2023-03-01T14:59:13.948Z,33.29
2023-03-01T15:00:51.708Z,33.57
2023-03-01T15:02:26.438Z,33.53
2023-03-01T15:03:58.372Z,34.06
2023-03-01T15:05:31.001Z,34.08
2023-03-01T15:07:08.404Z,34.30
2023-03-01T15:08:42.568Z,34.36
2023-03-01T15:10:18.041Z,34.39
2023-03-01T15:11:51.006Z,34.70
2023-03-01T15:13:24.933Z,34.56
2023-03-01T15:15:03.737Z,34.56
2023-03-01T15:16:42.284Z,34.30
2023-03-01T15:18:16.734Z,34.89
2023-03-01T15:19:49.341Z,35.05
2023-03-01T15:21:24.332Z,34.85
2023-03-01T15:22:59.277Z,35.44
2023-03-01T15:24:34.181Z,34.96
2023-03-01T15:26:05.934Z,34.95
2023-03-01T15:27:43.467Z,35.07
2023-03-01T15:29:18.021Z,35.53
2023-03-01T15:30:53.793Z,35.70
2023-03-01T15:32:26.994Z,35.44
2023-03-01T15:34:33.060Z,35.49
2023-03-01T15:36:25.788Z,35.72
2023-03-01T15:38:01.467Z,35.59
2023-03-01T15:39:39.106Z,35.47
2023-03-01T15:41:23.739Z,35.42
2023-03-01T15:42:58.083Z,35.29
2023-03-01T15:44:41.548Z,34.85
2023-03-01T15:46:19.629Z,34.58
2023-03-01T15:47:53.148Z,34.86
2023-03-01T15:49:30.819Z,35.28
2023-03-01T15:51:04.035Z,35.20
2023-03-01T15:52:40.309Z,35.26
2023-03-01T15:54:20.592Z,35.05
2023-03-01T15:55:52.207Z,35.43
2023-03-01T15:57:25.798Z,35.12
2023-03-01T15:59:02.013Z,35.15
2023-03-01T16:00:33.848Z,35.12
2023-03-01T16:02:13.978Z,35.42
2023-03-01T16:03:46.718Z,35.25
2023-03-01T16:05:21.171Z,34.85
2023-03-01T16:06:56.337Z,34.99
2023-03-01T16:08:28.446Z,35.07
2023-03-01T16:10:02.739Z,35.00
2023-03-01T16:11:38.082Z,35.02
2023-03-01T16:13:09.923Z,35.40
2023-03-01T16:14:41.569Z,35.23
2023-03-01T16:16:16.054Z,35.70
2023-03-01T16:17:48.944Z,35.39
2023-03-01T16:19:31.166Z,35.88
2023-03-01T16:21:07.822Z,35.58
2023-03-01T16:22:39.406Z,35.69
2023-03-01T16:24:11.267Z,35.59
2023-03-01T16:25:44.248Z,35.37
2023-03-01T16:27:16.783Z,35.29
2023-03-01T16:28:50.699Z,35.29
2023-03-01T16:30:23.643Z,35.47
2023-03-01T16:31:55.625Z,35.97
2023-03-01T16:33:32.926Z,35.29
2023-03-01T16:35:06.726Z,35.87
2023-03-01T16:36:39.766Z,35.46
2023-03-01T16:38:11.522Z,35.89
2023-03-01T16:39:43.361Z,35.94
2023-03-01T16:41:18.100Z,36.13
2023-03-01T16:42:51.452Z,35.76
2023-03-01T16:44:23.412Z,35.73
2023-03-01T16:45:55.075Z,35.97
2023-03-01T16:47:28.173Z,35.67
2023-03-01T16:49:00.139Z,35.91
2023-03-01T16:50:31.787Z,36.12
2023-03-01T16:52:04.668Z,36.22
2023-03-01T16:53:37.283Z,35.96
2023-03-01T16:55:10.614Z,35.88
2023-03-01T16:56:44.946Z,36.34
2023-03-01T16:58:17.641Z,36.13
2023-03-01T16:59:52.197Z,36.80
2023-03-01T17:01:26.994Z,36.67
2023-03-01T17:02:59.004Z,36.71
2023-03-01T17:04:30.937Z,37.15
2023-03-01T17:06:03.841Z,37.40
2023-03-01T17:07:36.075Z,36.48
2023-03-01T17:09:08.010Z,37.23
2023-03-01T17:10:42.987Z,37.21
2023-03-01T17:12:17.038Z,37.49
2023-03-01T17:13:49.307Z,36.95
2023-03-01T17:15:20.974Z,37.17
2023-03-01T17:16:54.914Z,37.30
2023-03-01T17:18:26.931Z,37.73
2023-03-01T17:19:58.813Z,37.51
2023-03-01T17:21:32.111Z,37.68
2023-03-01T17:23:04.421Z,37.55
2023-03-01T17:24:36.687Z,37.90
2023-03-01T17:26:08.397Z,37.64
2023-03-01T17:27:41.717Z,38.05
2023-03-01T17:29:13.832Z,37.94
2023-03-01T17:30:48.175Z,37.94
2023-03-01T17:32:19.999Z,38.16
2023-03-01T17:33:52.333Z,38.07
2023-03-01T17:35:24.028Z,38.26
2023-03-01T17:36:55.669Z,37.77
2023-03-01T17:38:27.992Z,37.79
2023-03-01T17:39:59.701Z,38.61
2023-03-01T17:41:31.635Z,38.51
2023-03-01T17:43:04.833Z,38.60
2023-03-01T17:44:36.445Z,38.82
2023-03-01T17:46:08.221Z,38.82
2023-03-01T17:47:40.233Z,38.76
2023-03-01T17:49:13.551Z,39.02
2023-03-01T17:50:46.007Z,38.82
2023-03-01T17:52:17.545Z,38.92
2023-03-01T17:53:50.206Z,38.97
2023-03-01T17:55:23.427Z,39.27
2023-03-01T17:56:56.277Z,38.81
2023-03-01T17:58:29.669Z,39.16
2023-03-01T18:00:01.218Z,39.62
2023-03-01T18:01:44.143Z,39.55
2023-03-01T18:03:15.986Z,39.17
2023-03-01T18:04:48.193Z,39.12
2023-03-01T18:06:21.259Z,39.50
2023-03-01T18:07:52.824Z,39.36
2023-03-01T18:09:25.530Z,39.30
2023-03-01T18:11:00.338Z,39.74
2023-03-01T18:12:32.635Z,39.62
2023-03-01T18:14:05.734Z,39.32
2023-03-01T18:15:38.118Z,39.97
2023-03-01T18:17:14.100Z,39.72
2023-03-01T18:18:46.618Z,39.52
2023-03-01T18:20:19.339Z,39.71
2023-03-01T18:21:51.222Z,40.01
2023-03-01T18:23:23.095Z,39.70
2023-03-01T18:24:55.224Z,39.75
2023-03-01T18:26:28.294Z,39.70
2023-03-01T18:28:01.450Z,39.81
2023-03-01T18:29:36.311Z,40.04
2023-03-01T18:31:09.022Z,40.40
2023-03-01T18:32:40.915Z,39.93
2023-03-01T18:34:12.864Z,40.10
2023-03-01T18:35:45.794Z,40.34
2023-03-01T18:37:23.379Z,40.32
2023-03-01T18:38:58.065Z,40.41
2023-03-01T18:40:31.896Z,40.27
2023-03-01T18:42:04.096Z,40.35
2023-03-01T18:43:35.852Z,40.28
2023-03-01T18:45:11.988Z,40.58
2023-03-01T18:46:46.766Z,40.58
2023-03-01T18:48:18.512Z,40.83
2023-03-01T18:49:50.180Z,40.87
2023-03-01T18:51:23.065Z,40.66
2023-03-01T18:52:55.221Z,40.78
2023-03-01T18:54:26.896Z,40.40
2023-03-01T18:56:00.227Z,40.59
2023-03-01T18:57:31.734Z,40.34
2023-03-01T18:59:06.312Z,40.43
2023-03-01T19:00:39.485Z,40.41
2023-03-01T19:02:11.625Z,40.33
2023-03-01T19:03:43.692Z,40.56
2023-03-01T19:05:17.253Z,40.46
2023-03-01T19:06:49.303Z,40.82
2023-03-01T19:08:20.954Z,40.37
2023-03-01T19:09:52.551Z,40.55
2023-03-01T19:11:26.959Z,40.39
2023-03-01T19:12:58.588Z,40.75
2023-03-01T19:14:30.515Z,40.68
2023-03-01T19:16:04.846Z,40.78
2023-03-01T19:17:36.802Z,40.69
2023-03-01T19:19:10.085Z,40.93
2023-03-01T19:20:46.717Z,40.99
2023-03-01T19:22:20.983Z,40.90
2023-03-01T19:23:53.341Z,41.11
2023-03-01T19:25:25.017Z,40.97
2023-03-01T19:26:57.798Z,40.90
2023-03-01T19:28:29.518Z,41.18
2023-03-01T19:30:01.136Z,40.78
2023-03-01T19:31:34.998Z,40.95
2023-03-01T19:33:07.846Z,40.75
2023-03-01T19:34:40.711Z,40.66
2023-03-01T19:36:13.275Z,40.77
2023-03-01T19:37:44.846Z,40.73
2023-03-01T19:39:16.594Z,40.71
2023-03-01T19:40:48.430Z,40.88
2023-03-01T19:42:20.092Z,40.74
2023-03-01T19:43:52.154Z,40.71
2023-03-01T19:45:33.359Z,40.90
2023-03-01T19:47:07.252Z,40.89
2023-03-01T19:48:40.882Z,40.95
2023-03-01T19:50:13.814Z,41.12
2023-03-01T19:51:45.535Z,41.13
2023-03-01T19:53:17.570Z,40.99
2023-03-01T19:54:50.517Z,41.14
2023-03-01T19:56:23.551Z,41.18
2023-03-01T19:57:56.662Z,41.09
2023-03-01T19:59:30.816Z,41.00
2023-03-01T20:01:02.820Z,40.93
2023-03-01T20:02:36.022Z,41.10
2023-03-01T20:04:09.153Z,41.04
2023-03-01T20:05:43.713Z,40.94
2023-03-01T20:07:15.496Z,41.32
2023-03-01T20:08:47.566Z,41.27
2023-03-01T20:10:19.616Z,41.36
2023-03-01T20:11:52.686Z,41.37
2023-03-01T20:13:26.814Z,41.28
2023-03-01T20:14:59.276Z,41.30
2023-03-01T20:16:31.181Z,41.48
2023-03-01T20:18:04.847Z,41.59